Time;durP1;ratioP1;P1;durP2;ratioP2;P2;SDS_P1;SDS_P2;PMS_P1;PMS_P2;Temp;Humidity;BMP_temperature;BMP_pressure;BME280_temperature;BME280_humidity;BME280_pressure;Samples;Min_cycle;Max_cycle;Signal;HPM_P1;HPM_P2
2022/03/05 00:01:50;;;;;;;3.97;2.70;;;1.20;99.90;;;;;;4977811;28;20501;-87
2022/03/05 00:04:17;;;;;;;6.23;3.70;;;1.20;99.90;;;;;;4960135;28;20235;-88
2022/03/05 00:06:43;;;;;;;4.13;2.90;;;1.20;99.90;;;;;;4977464;28;20204;-87
2022/03/05 00:09:11;;;;;;;5.53;3.60;;;1.30;99.90;;;;;;4977563;28;20618;-87
2022/03/05 00:11:39;;;;;;;5.43;3.10;;;1.30;99.90;;;;;;4960154;28;20263;-87
2022/03/05 00:14:05;;;;;;;5.17;3.17;;;1.20;99.90;;;;;;4960147;28;20190;-87
2022/03/05 00:16:30;;;;;;;5.77;2.80;;;1.30;99.90;;;;;;4960297;28;20190;-87
2022/03/05 00:18:56;;;;;;;6.13;3.20;;;1.30;99.90;;;;;;4960089;28;20265;-88
2022/03/05 00:21:22;;;;;;;7.77;3.10;;;1.20;99.90;;;;;;4960140;28;20178;-87
2022/03/05 00:23:48;;;;;;;4.73;3.00;;;1.20;99.90;;;;;;4960042;28;20192;-87
2022/03/05 00:26:14;;;;;;;6.97;3.27;;;1.20;99.90;;;;;;4959852;28;20180;-88
2022/03/05 00:28:39;;;;;;;5.40;2.70;;;1.20;99.90;;;;;;4959997;28;20231;-88
2022/03/05 00:31:05;;;;;;;5.03;2.30;;;1.20;99.90;;;;;;4959007;28;20314;-87
2022/03/05 00:33:31;;;;;;;5.87;2.67;;;1.20;99.90;;;;;;4959827;28;20203;-88
2022/03/05 00:35:56;;;;;;;4.80;2.80;;;1.20;99.90;;;;;;4959740;28;20616;-87
2022/03/05 00:38:22;;;;;;;4.10;2.40;;;1.20;99.90;;;;;;4959740;28;20266;-87
2022/03/05 00:40:48;;;;;;;3.20;2.40;;;1.20;99.90;;;;;;4959811;28;20216;-88
2022/03/05 00:43:14;;;;;;;3.87;2.47;;;1.20;99.90;;;;;;4976829;28;20176;-88
2022/03/05 00:45:40;;;;;;;4.13;2.53;;;1.20;99.90;;;;;;4959612;28;20181;-87
2022/03/05 00:48:07;;;;;;;5.00;2.80;;;1.20;99.90;;;;;;4959128;28;20627;-88
2022/03/05 00:50:33;;;;;;;4.90;2.90;;;1.20;99.90;;;;;;4959431;28;20238;-87
2022/03/05 00:52:59;;;;;;;5.60;2.10;;;1.20;99.90;;;;;;4976891;28;20165;-87
2022/03/05 00:55:25;;;;;;;7.43;2.70;;;1.20;99.90;;;;;;4959206;28;20250;-87
2022/03/05 00:57:50;;;;;;;3.73;2.77;;;1.20;99.90;;;;;;4959246;28;20184;-87
2022/03/05 01:00:16;;;;;;;4.60;2.77;;;1.20;99.90;;;;;;4959588;28;20186;-87
2022/03/05 01:02:43;;;;;;;4.50;2.83;;;1.20;99.90;;;;;;4976471;28;20212;-88
2022/03/05 01:05:10;;;;;;;5.53;2.80;;;1.30;99.90;;;;;;4959488;28;20184;-88
2022/03/05 01:07:36;;;;;;;4.20;3.03;;;1.30;99.90;;;;;;4959301;28;20183;-86
2022/03/05 01:10:03;;;;;;;6.77;3.00;;;1.30;99.90;;;;;;4959127;28;20185;-87
2022/03/05 01:12:29;;;;;;;4.53;2.70;;;1.20;99.90;;;;;;4959062;28;20220;-87
2022/03/05 01:14:55;;;;;;;6.50;2.83;;;1.20;99.90;;;;;;4959286;28;20192;-87
2022/03/05 01:17:21;;;;;;;4.77;3.00;;;1.20;99.90;;;;;;4958851;28;20216;-87
2022/03/05 01:19:47;;;;;;;4.77;3.10;;;1.20;99.90;;;;;;4958924;28;20185;-86
2022/03/05 01:22:13;;;;;;;5.13;3.07;;;1.30;99.90;;;;;;4959242;28;20281;-88
2022/03/05 01:24:39;;;;;;;4.93;2.90;;;1.30;99.90;;;;;;4958885;28;20176;-87
2022/03/05 01:27:04;;;;;;;5.10;2.80;;;1.30;99.90;;;;;;4959122;28;20185;-87
2022/03/05 01:29:31;;;;;;;5.43;3.00;;;1.30;99.90;;;;;;4959096;28;20263;-87
2022/03/05 01:31:57;;;;;;;5.90;3.20;;;1.30;99.90;;;;;;4958905;28;20213;-87
2022/03/05 01:34:23;;;;;;;7.20;3.27;;;1.30;99.90;;;;;;4958925;28;20238;-87
2022/03/05 01:36:48;;;;;;;3.67;2.90;;;1.20;99.90;;;;;;4958730;28;20195;-86
2022/03/05 01:39:14;;;;;;;5.63;3.13;;;1.20;99.90;;;;;;4958897;28;20185;-88
2022/03/05 01:41:40;;;;;;;6.37;3.03;;;1.20;99.90;;;;;;4958929;28;20184;-87
2022/03/05 01:44:06;;;;;;;6.60;2.90;;;1.10;99.90;;;;;;4975536;28;20505;-87
2022/03/05 01:46:34;;;;;;;5.23;3.00;;;1.10;99.90;;;;;;4959098;28;20441;-87
2022/03/05 01:49:01;;;;;;;4.47;3.00;;;1.00;99.90;;;;;;4958472;28;20191;-87
2022/03/05 01:51:27;;;;;;;6.70;3.10;;;1.00;99.90;;;;;;4958784;28;20217;-86
2022/03/05 01:53:53;;;;;;;7.33;3.47;;;1.00;99.90;;;;;;5354513;23;20242;-89
2022/03/05 01:56:19;;;;;;;5.30;3.20;;;1.00;99.90;;;;;;4920942;29;20207;-89
2022/03/05 01:58:46;;;;;;;5.20;3.07;;;1.00;99.90;;;;;;4944039;28;20191;-89
2022/03/05 02:01:12;;;;;;;7.13;3.00;;;0.90;99.90;;;;;;4956922;28;20189;-89
2022/03/05 02:03:38;;;;;;;4.67;3.30;;;0.80;99.90;;;;;;4956747;29;20264;-89
2022/03/05 02:06:03;;;;;;;4.47;2.70;;;0.80;99.90;;;;;;4939667;29;20687;-87
2022/03/05 02:08:30;;;;;;;5.37;3.70;;;0.70;99.90;;;;;;4956411;29;20180;-87
2022/03/05 02:10:55;;;;;;;7.90;3.73;;;0.70;99.90;;;;;;4939632;29;20269;-88
2022/03/05 02:13:21;;;;;;;5.10;3.43;;;0.70;99.90;;;;;;4956929;28;20186;-88
2022/03/05 02:15:56;;;;;;;3.93;3.03;;;0.70;99.90;;;;;;4939626;29;20184;-88
2022/03/05 02:18:23;;;;;;;5.50;3.67;;;0.70;99.90;;;;;;4956638;29;20180;-88
2022/03/05 02:20:52;;;;;;;4.80;3.33;;;0.60;99.90;;;;;;4939549;29;20192;-88
2022/03/05 02:23:18;;;;;;;5.17;3.67;;;0.60;99.90;;;;;;4957192;28;20671;-88
2022/03/05 02:25:55;;;;;;;7.13;3.40;;;0.60;99.90;;;;;;4942804;29;20264;-89
2022/03/05 02:28:23;;;;;;;5.47;3.30;;;0.60;99.90;;;;;;4943135;29;20192;-88
2022/03/05 02:30:49;;;;;;;6.23;3.80;;;0.60;99.90;;;;;;4959867;28;20268;-87
2022/03/05 02:33:15;;;;;;;6.37;3.30;;;0.60;99.90;;;;;;4942242;29;20194;-88
2022/03/05 02:35:45;;;;;;;6.00;3.80;;;0.50;99.90;;;;;;4942690;29;20191;-88
2022/03/05 02:38:12;;;;;;;5.90;3.87;;;0.50;99.90;;;;;;4942405;29;20230;-88
2022/03/05 02:40:39;;;;;;;6.60;3.60;;;0.50;99.90;;;;;;4942916;29;20187;-88
2022/03/05 02:43:06;;;;;;;7.07;3.70;;;0.50;99.90;;;;;;4942741;29;20186;-88
2022/03/05 02:45:32;;;;;;;9.33;3.47;;;0.50;99.90;;;;;;4941960;29;20624;-88
2022/03/05 02:47:57;;;;;;;5.20;3.30;;;0.50;99.90;;;;;;4942310;29;20272;-88
2022/03/05 02:50:23;;;;;;;5.50;3.20;;;0.50;99.90;;;;;;4958852;28;20209;-88
2022/03/05 02:52:49;;;;;;;7.17;3.60;;;0.50;99.90;;;;;;4942461;28;20727;-88
2022/03/05 02:55:15;;;;;;;5.27;3.70;;;0.50;99.90;;;;;;4959378;29;20166;-88
2022/03/05 02:57:40;;;;;;;6.23;3.60;;;0.50;99.90;;;;;;4942610;29;20189;-88
2022/03/05 03:00:08;;;;;;;5.47;4.00;;;0.60;99.90;;;;;;4959499;28;20179;-88
2022/03/05 03:02:33;;;;;;;6.60;3.93;;;0.60;99.90;;;;;;4959483;29;20178;-87
2022/03/05 03:05:00;;;;;;;7.50;4.40;;;0.60;99.90;;;;;;4959344;29;20192;-88
2022/03/05 03:07:26;;;;;;;6.43;4.00;;;0.50;99.90;;;;;;4942348;29;20185;-88
2022/03/05 03:09:51;;;;;;;9.37;4.37;;;0.50;99.90;;;;;;4941968;29;20178;-88
2022/03/05 03:12:17;;;;;;;9.47;4.90;;;0.50;99.90;;;;;;4959301;29;20221;-88
2022/03/05 03:14:43;;;;;;;7.43;4.53;;;0.50;99.90;;;;;;4959183;29;20631;-88
2022/03/05 03:17:08;;;;;;;6.70;4.43;;;0.50;99.90;;;;;;4942131;29;20185;-89
2022/03/05 03:19:34;;;;;;;9.43;4.93;;;0.40;99.90;;;;;;4941984;29;20284;-88
2022/03/05 03:22:00;;;;;;;6.40;3.80;;;0.40;99.90;;;;;;4941902;29;20196;-88
2022/03/05 03:24:25;;;;;;;7.00;4.50;;;0.40;99.90;;;;;;4941858;29;20630;-87
2022/03/05 03:26:51;;;;;;;6.53;4.57;;;0.40;99.90;;;;;;4941703;29;20271;-88
2022/03/05 03:29:17;;;;;;;5.93;3.90;;;0.40;99.90;;;;;;4942020;29;20245;-88
2022/03/05 03:31:42;;;;;;;8.97;4.03;;;0.40;99.90;;;;;;4958644;29;20219;-87
2022/03/05 03:34:08;;;;;;;7.77;4.20;;;0.40;99.90;;;;;;4941257;29;20604;-88
2022/03/05 03:36:34;;;;;;;8.17;3.73;;;0.40;99.90;;;;;;4941602;29;20188;-88
2022/03/05 03:38:59;;;;;;;9.17;4.30;;;0.40;99.90;;;;;;4958509;29;20174;-87
2022/03/05 03:41:25;;;;;;;5.77;3.57;;;0.40;99.90;;;;;;4958568;28;20188;-87
2022/03/05 03:43:51;;;;;;;9.10;3.90;;;0.40;99.90;;;;;;4941748;29;20538;-87
2022/03/05 03:46:16;;;;;;;5.77;3.63;;;0.40;99.90;;;;;;4958578;28;20522;-87
2022/03/05 03:48:42;;;;;;;6.93;3.80;;;0.40;99.90;;;;;;4958485;29;20177;-87
2022/03/05 03:51:08;;;;;;;6.93;4.00;;;0.30;99.90;;;;;;4941552;29;20723;-87
2022/03/05 03:53:33;;;;;;;5.87;4.10;;;0.40;99.90;;;;;;4940986;29;20236;-86
2022/03/05 03:55:59;;;;;;;5.80;4.10;;;0.40;99.90;;;;;;4941234;29;20213;-87
2022/03/05 03:58:25;;;;;;;7.13;4.43;;;0.40;99.90;;;;;;4958338;29;20245;-86
2022/03/05 04:00:51;;;;;;;9.00;4.37;;;0.40;99.90;;;;;;4958267;29;20205;-86
2022/03/05 04:03:16;;;;;;;7.57;4.37;;;0.40;99.90;;;;;;4941064;29;20181;-87
2022/03/05 04:05:42;;;;;;;7.23;3.83;;;0.40;99.90;;;;;;4941065;29;20685;-86
2022/03/05 04:10:52;;;;;;;4.57;3.77;;;0.30;99.90;;;;;;4958145;29;20284;-87
2022/03/05 04:13:18;;;;;;;8.20;4.37;;;0.40;99.90;;;;;;4958034;29;20185;-87
2022/03/05 04:15:45;;;;;;;7.97;4.13;;;0.40;99.90;;;;;;4957772;28;20181;-87
2022/03/05 04:18:10;;;;;;;7.87;4.33;;;0.40;99.90;;;;;;4957953;29;20176;-87
2022/03/05 04:20:37;;;;;;;5.83;4.37;;;0.30;99.90;;;;;;4940988;29;20272;-87
2022/03/05 04:23:03;;;;;;;6.47;4.53;;;0.40;99.90;;;;;;4957967;28;20185;-88
2022/03/05 04:25:29;;;;;;;6.87;4.30;;;0.40;99.90;;;;;;4940434;29;20192;-87
2022/03/05 04:27:54;;;;;;;6.30;4.57;;;0.30;99.90;;;;;;4940640;29;20177;-85
2022/03/05 04:30:20;;;;;;;8.60;4.40;;;0.30;99.90;;;;;;4957698;29;20173;-87
2022/03/05 04:32:46;;;;;;;7.73;4.30;;;0.30;99.90;;;;;;4956996;28;20616;-87
2022/03/05 04:35:12;;;;;;;9.20;4.33;;;0.30;99.90;;;;;;4957413;29;20182;-87
2022/03/05 04:37:38;;;;;;;6.00;4.07;;;0.30;99.90;;;;;;4940450;29;20556;-87
2022/03/05 04:40:05;;;;;;;6.07;4.23;;;0.20;99.90;;;;;;4957304;29;20189;-87
2022/03/05 04:42:32;;;;;;;7.03;4.63;;;0.30;99.90;;;;;;4940229;29;20228;-87
2022/03/05 04:44:58;;;;;;;9.37;4.40;;;0.20;99.90;;;;;;4957222;28;20180;-86
2022/03/05 04:47:24;;;;;;;6.17;4.43;;;0.20;99.90;;;;;;4939666;29;20187;-87
2022/03/05 04:49:50;;;;;;;7.27;4.57;;;0.20;99.90;;;;;;4957476;29;20177;-87
2022/03/05 04:52:16;;;;;;;7.93;4.87;;;0.20;99.90;;;;;;4940101;29;20209;-86
2022/03/05 04:54:41;;;;;;;8.53;4.73;;;0.10;99.90;;;;;;4939773;29;20328;-87
2022/03/05 04:57:07;;;;;;;6.90;4.90;;;0.10;99.90;;;;;;4957128;29;20181;-87
2022/03/05 04:59:33;;;;;;;8.30;4.33;;;0.10;99.90;;;;;;4956991;29;20168;-87
2022/03/05 05:01:59;;;;;;;8.77;4.40;;;0.10;99.90;;;;;;4940370;29;20248;-87
2022/03/05 05:04:26;;;;;;;7.07;4.47;;;0.10;99.90;;;;;;4939991;29;20185;-87
2022/03/05 05:06:51;;;;;;;7.97;4.83;;;0.10;99.90;;;;;;4956949;29;20617;-85
2022/03/05 05:09:17;;;;;;;8.53;5.40;;;0.10;99.90;;;;;;4957039;29;20228;-86
2022/03/05 05:11:43;;;;;;;6.03;4.70;;;0.10;99.90;;;;;;4939803;29;20247;-86
2022/03/05 05:14:10;;;;;;;8.20;4.97;;;0.00;99.90;;;;;;4957166;28;20179;-87
2022/03/05 05:16:36;;;;;;;6.80;4.73;;;0.10;99.90;;;;;;4939778;29;20191;-87
2022/03/05 05:21:47;;;;;;;8.33;4.90;;;0.10;99.90;;;;;;4957819;29;20250;-87
2022/03/05 05:24:12;;;;;;;7.27;4.93;;;0.00;99.90;;;;;;4956815;29;20604;-87
2022/03/05 05:26:38;;;;;;;7.27;4.50;;;0.00;99.90;;;;;;4939523;29;20205;-86
2022/03/05 05:29:04;;;;;;;9.00;5.10;;;0.00;99.90;;;;;;4956916;29;20197;-86
2022/03/05 05:31:30;;;;;;;10.43;5.60;;;0.00;99.90;;;;;;4939022;28;20227;-86
2022/03/05 05:33:56;;;;;;;7.73;5.27;;;0.00;99.90;;;;;;4956728;29;20605;-86
2022/03/05 05:36:22;;;;;;;9.70;5.33;;;0.00;99.90;;;;;;4956790;29;20237;-86
2022/03/05 05:38:47;;;;;;;8.50;5.17;;;0.00;99.90;;;;;;4939321;29;20577;-87
2022/03/05 05:41:14;;;;;;;7.50;5.27;;;-0.10;99.90;;;;;;4939754;29;20192;-87
2022/03/05 05:43:40;;;;;;;8.93;5.53;;;-0.10;99.90;;;;;;4956808;28;20178;-86
2022/03/05 05:46:06;;;;;;;7.57;5.10;;;-0.10;99.90;;;;;;4939543;29;20188;-86
2022/03/05 05:48:32;;;;;;;9.30;5.37;;;-0.10;99.90;;;;;;4939748;29;20180;-86
2022/03/05 05:50:58;;;;;;;9.73;5.20;;;-0.10;99.90;;;;;;4939708;29;20237;-87
2022/03/05 05:53:25;;;;;;;8.13;4.83;;;-0.10;99.90;;;;;;4956389;29;20229;-86
2022/03/05 05:55:53;;;;;;;7.57;5.00;;;-0.20;99.90;;;;;;4939248;29;20600;-87
2022/03/05 05:58:19;;;;;;;6.17;4.50;;;-0.20;99.90;;;;;;4957918;28;20605;-86
2022/03/05 06:00:44;;;;;;;7.83;5.10;;;-0.20;99.90;;;;;;4960577;29;20184;-87
2022/03/05 06:03:10;;;;;;;9.53;5.13;;;-0.20;99.90;;;;;;4943464;29;20650;-86
2022/03/05 06:05:36;;;;;;;7.87;5.30;;;-0.20;99.90;;;;;;4943529;29;20188;-88
2022/03/05 06:08:02;;;;;;;9.93;5.37;;;-0.20;99.90;;;;;;4960103;29;20579;-87
2022/03/05 06:10:29;;;;;;;6.47;4.63;;;-0.20;99.90;;;;;;4942991;29;20193;-87
2022/03/05 06:12:55;;;;;;;6.43;4.80;;;-0.20;99.90;;;;;;4960354;29;20183;-87
2022/03/05 06:15:20;;;;;;;8.87;5.10;;;-0.20;99.90;;;;;;4960024;28;20191;-88
2022/03/05 06:17:46;;;;;;;9.53;5.30;;;-0.30;99.90;;;;;;4959982;28;20211;-88
2022/03/05 06:20:12;;;;;;;10.40;5.13;;;-0.30;99.90;;;;;;4943150;29;20172;-88
2022/03/05 06:22:38;;;;;;;7.77;5.33;;;-0.30;99.90;;;;;;4943017;29;20199;-87
2022/03/05 06:25:07;;;;;;;11.73;5.07;;;-0.30;99.90;;;;;;4942639;29;20202;-88
2022/03/05 06:27:33;;;;;;;7.70;5.07;;;-0.30;99.90;;;;;;4942741;29;20188;-88
2022/03/05 06:29:59;;;;;;;9.20;5.93;;;-0.30;99.90;;;;;;4943123;29;20181;-87
2022/03/05 06:32:24;;;;;;;8.53;6.07;;;-0.30;99.90;;;;;;4942716;29;20254;-88
2022/03/05 06:34:54;;;;;;;9.17;5.53;;;-0.30;99.90;;;;;;4959885;29;20184;-86
2022/03/05 06:37:22;;;;;;;8.07;5.57;;;-0.20;99.90;;;;;;4942474;29;20255;-87
2022/03/05 06:39:48;;;;;;;7.90;5.53;;;-0.20;99.90;;;;;;4959612;29;20237;-87
2022/03/05 06:42:14;;;;;;;10.77;6.00;;;-0.10;99.90;;;;;;4959923;28;20670;-87
2022/03/05 06:44:40;;;;;;;8.50;5.40;;;-0.10;99.90;;;;;;4959801;28;20179;-87
2022/03/05 06:47:06;;;;;;;11.17;5.60;;;-0.10;99.90;;;;;;4959660;29;20522;-89
2022/03/05 06:49:32;;;;;;;8.50;5.20;;;0.00;99.90;;;;;;4942570;29;20236;-88
2022/03/05 06:51:58;;;;;;;8.87;5.50;;;0.00;99.90;;;;;;4959480;29;20217;-89
2022/03/05 06:54:24;;;;;;;9.17;5.83;;;0.10;99.90;;;;;;4941982;29;20264;-89
2022/03/05 06:56:50;;;;;;;9.20;5.60;;;0.10;99.90;;;;;;4942330;29;20612;-89
2022/03/05 06:59:16;;;;;;;8.70;5.60;;;0.20;99.90;;;;;;4942524;29;20188;-89
2022/03/05 07:01:41;;;;;;;10.67;6.07;;;0.30;99.90;;;;;;4959456;28;20562;-89
2022/03/05 07:04:07;;;;;;;11.83;6.50;;;0.30;99.90;;;;;;4942050;29;20609;-89
2022/03/05 07:06:33;;;;;;;8.30;5.70;;;0.40;99.90;;;;;;4959217;28;20536;-88
2022/03/05 07:08:59;;;;;;;9.43;5.93;;;0.40;99.90;;;;;;4959023;28;20160;-89
2022/03/05 07:11:24;;;;;;;9.40;5.87;;;0.40;99.90;;;;;;4959605;28;20216;-90
2022/03/05 07:13:50;;;;;;;7.53;5.50;;;0.50;99.90;;;;;;4942601;29;20181;-89
2022/03/05 07:16:16;;;;;;;10.07;5.67;;;0.60;99.90;;;;;;4942569;29;20217;-89
2022/03/05 07:18:41;;;;;;;10.37;5.63;;;0.60;99.90;;;;;;4959163;29;20605;-89
2022/03/05 07:21:07;;;;;;;9.83;5.80;;;0.60;99.90;;;;;;4959014;28;20178;-87
2022/03/05 07:23:33;;;;;;;9.53;5.63;;;0.70;99.90;;;;;;4941896;29;20185;-87
2022/03/05 07:25:58;;;;;;;8.93;5.27;;;0.70;99.90;;;;;;4958849;28;20177;-87
2022/03/05 07:28:24;;;;;;;10.50;5.97;;;0.80;99.90;;;;;;4942063;29;20236;-87
2022/03/05 07:30:51;;;;;;;7.17;5.40;;;0.80;99.90;;;;;;4959056;29;20224;-87
2022/03/05 07:33:17;;;;;;;7.50;5.27;;;0.90;99.90;;;;;;4958814;29;20214;-87
2022/03/05 07:35:43;;;;;;;7.30;5.23;;;1.00;99.90;;;;;;4958706;28;20207;-88
2022/03/05 07:38:09;;;;;;;7.40;4.70;;;1.10;99.90;;;;;;4941777;29;20224;-88
2022/03/05 07:40:35;;;;;;;7.27;5.60;;;1.20;99.90;;;;;;4958708;29;20229;-88
2022/03/05 07:43:00;;;;;;;8.20;4.83;;;1.30;99.90;;;;;;4958931;29;20181;-89
2022/03/05 07:45:26;;;;;;;8.50;5.10;;;1.30;99.90;;;;;;4958784;29;20212;-88
2022/03/05 07:47:52;;;;;;;9.37;5.00;;;1.40;99.90;;;;;;4958561;29;20667;-88
2022/03/05 07:50:17;;;;;;;8.23;5.33;;;1.40;99.90;;;;;;4941464;29;20189;-88
2022/03/05 07:52:43;;;;;;;10.60;5.27;;;1.50;99.90;;;;;;4941315;29;20276;-88
2022/03/05 07:55:09;;;;;;;8.03;4.67;;;1.60;99.90;;;;;;4958322;29;20363;-89
2022/03/05 07:57:35;;;;;;;9.30;5.00;;;1.70;99.90;;;;;;4941495;29;20213;-89
2022/03/05 08:00:01;;;;;;;7.63;4.40;;;1.70;99.90;;;;;;4958478;29;20193;-90
2022/03/05 08:02:26;;;;;;;7.93;4.50;;;1.80;99.90;;;;;;4933109;29;20201;-89
2022/03/05 08:04:52;;;;;;;7.30;4.23;;;1.90;99.90;;;;;;4939130;29;20270;-90
2022/03/05 08:07:18;;;;;;;5.27;3.53;;;1.90;99.90;;;;;;4939199;29;20172;-91
2022/03/05 08:09:44;;;;;;;5.17;3.10;;;2.00;99.90;;;;;;4922094;29;20177;-91
2022/03/05 08:12:10;;;;;;;4.13;2.50;;;2.10;99.90;;;;;;4921934;29;20224;-91
2022/03/05 08:14:38;;;;;;;5.00;2.67;;;2.20;99.90;;;;;;4939030;29;20567;-91
2022/03/05 08:17:05;;;;;;;3.73;2.17;;;2.30;99.90;;;;;;4938880;29;20183;-91
2022/03/05 08:19:30;;;;;;;4.27;2.40;;;2.40;99.90;;;;;;4938858;29;20247;-91
2022/03/05 08:21:56;;;;;;;2.63;2.00;;;2.50;99.90;;;;;;4938128;29;20273;-92
2022/03/05 08:24:22;;;;;;;4.03;2.00;;;2.60;99.90;;;;;;4954619;29;20179;-90
2022/03/05 08:26:48;;;;;;;4.40;2.17;;;2.60;99.90;;;;;;4947994;28;20194;-92
2022/03/05 08:29:13;;;;;;;2.33;1.47;;;2.80;99.90;;;;;;4922291;29;20181;-91
2022/03/05 08:31:39;;;;;;;5.47;1.90;;;2.80;99.90;;;;;;4936128;29;20227;-92
2022/03/05 08:34:05;;;;;;;4.10;1.83;;;2.90;99.90;;;;;;4957955;29;20183;-92
2022/03/05 08:36:32;;;;;;;2.40;1.60;;;2.90;99.90;;;;;;4957879;28;20186;-91
2022/03/05 08:38:58;;;;;;;4.23;1.77;;;2.90;99.90;;;;;;4940858;29;20188;-91
2022/03/05 08:41:25;;;;;;;2.77;2.00;;;3.00;99.90;;;;;;4957555;29;20180;-92
2022/03/05 08:43:51;;;;;;;2.50;1.80;;;3.10;99.90;;;;;;4957771;28;20622;-92
2022/03/05 08:46:18;;;;;;;5.13;1.90;;;3.10;99.90;;;;;;4957563;29;20516;-91
2022/03/05 08:48:45;;;;;;;4.00;2.03;;;3.10;99.90;;;;;;4940342;29;20191;-91
2022/03/05 08:51:11;;;;;;;3.80;2.13;;;3.20;99.90;;;;;;4957405;29;20219;-91
2022/03/05 08:53:36;;;;;;;3.77;2.30;;;3.30;99.90;;;;;;4940204;29;20676;-91
2022/03/05 08:56:02;;;;;;;4.87;2.30;;;3.40;99.90;;;;;;4940235;29;20176;-91
2022/03/05 08:58:28;;;;;;;4.93;2.10;;;3.40;99.90;;;;;;4940192;29;20181;-90
2022/03/05 09:00:55;;;;;;;4.07;2.47;;;3.40;99.90;;;;;;4940275;29;20224;-90
2022/03/05 09:03:20;;;;;;;4.40;2.40;;;3.40;99.90;;;;;;4940379;29;20248;-90
2022/03/05 09:05:47;;;;;;;4.07;2.23;;;3.50;99.90;;;;;;4940246;29;20525;-91
2022/03/05 09:08:14;;;;;;;5.57;2.60;;;3.60;99.90;;;;;;4940356;29;20181;-90
2022/03/05 09:10:40;;;;;;;3.70;2.03;;;3.70;99.90;;;;;;4957229;29;20281;-90
2022/03/05 09:13:05;;;;;;;5.83;2.40;;;3.80;99.90;;;;;;4957387;28;20595;-90
2022/03/05 09:15:31;;;;;;;4.40;2.60;;;3.80;99.90;;;;;;4940116;29;20210;-89
2022/03/05 09:17:58;;;;;;;3.90;2.60;;;3.80;99.90;;;;;;4957418;29;20188;-90
2022/03/05 09:20:23;;;;;;;5.50;2.90;;;3.80;99.90;;;;;;4940710;29;20209;-90
2022/03/05 09:22:49;;;;;;;3.87;2.47;;;3.80;99.90;;;;;;4957549;29;20188;-88
2022/03/05 09:25:15;;;;;;;4.37;2.87;;;3.80;99.90;;;;;;4956832;28;20604;-89
2022/03/05 09:27:41;;;;;;;6.37;3.20;;;3.90;99.90;;;;;;4957164;28;20173;-89
2022/03/05 09:30:08;;;;;;;5.23;3.47;;;4.00;99.90;;;;;;4957142;29;20199;-89
2022/03/05 09:32:34;;;;;;;7.40;3.60;;;4.00;99.90;;;;;;4939300;29;20276;-89
2022/03/05 09:35:00;;;;;;;7.60;3.80;;;4.10;99.90;;;;;;4939950;29;20185;-89
2022/03/05 09:37:30;;;;;;;6.97;3.70;;;4.10;99.90;;;;;;4956957;28;20177;-89
2022/03/05 09:39:59;;;;;;;6.63;4.23;;;4.10;99.90;;;;;;4939758;29;20195;-89
2022/03/05 09:42:25;;;;;;;6.13;4.50;;;4.20;99.90;;;;;;4956910;29;20174;-89
2022/03/05 09:44:51;;;;;;;6.17;4.20;;;4.30;99.90;;;;;;4956808;28;20189;-87
2022/03/05 09:47:17;;;;;;;7.17;4.10;;;4.40;99.90;;;;;;4939575;29;20204;-89
2022/03/05 09:49:43;;;;;;;6.90;4.10;;;4.40;99.90;;;;;;4939919;29;20181;-89
2022/03/05 09:52:09;;;;;;;8.30;4.50;;;4.50;99.90;;;;;;4956925;29;20201;-88
2022/03/05 09:54:36;;;;;;;8.80;4.33;;;4.60;99.90;;;;;;4956616;28;20221;-88
2022/03/05 09:57:12;;;;;;;6.63;4.50;;;4.60;99.90;;;;;;4939793;29;20185;-88
2022/03/05 09:59:38;;;;;;;6.80;4.47;;;4.60;99.90;;;;;;4940105;29;20193;-89
2022/03/05 10:02:05;;;;;;;5.60;4.03;;;4.70;99.90;;;;;;4939843;29;20192;-89
2022/03/05 10:04:31;;;;;;;7.93;4.47;;;4.70;99.90;;;;;;4956662;29;20170;-88
2022/03/05 10:07:10;;;;;;;7.47;4.50;;;4.80;99.90;;;;;;4956631;28;20672;-90
2022/03/05 10:09:37;;;;;;;6.37;4.37;;;4.80;99.90;;;;;;4939376;29;20181;-90
2022/03/05 10:12:25;;;;;;;5.77;4.30;;;4.80;99.90;;;;;;4956597;29;20233;-89
2022/03/05 10:15:07;;;;;;;6.47;4.20;;;4.70;99.90;;;;;;4939520;29;20203;-88
2022/03/05 10:17:55;;;;;;;8.07;4.70;;;4.60;99.90;;;;;;4939567;29;20185;-88
2022/03/05 10:20:31;;;;;;;7.53;4.50;;;4.50;99.90;;;;;;4956638;29;20173;-89
2022/03/05 10:23:05;;;;;;;8.37;4.30;;;4.40;99.90;;;;;;4939650;29;20261;-89
2022/03/05 10:25:55;;;;;;;7.03;4.17;;;4.50;99.90;;;;;;4939163;29;20177;-88
2022/03/05 10:28:23;;;;;;;8.23;4.93;;;4.60;99.90;;;;;;4939481;29;20554;-87
2022/03/05 10:30:52;;;;;;;6.67;4.50;;;4.80;99.90;;;;;;4939216;29;20181;-88
2022/03/05 10:33:35;;;;;;;7.77;5.20;;;4.80;99.90;;;;;;4939179;29;20197;-88
2022/03/05 10:36:04;;;;;;;7.13;4.73;;;4.80;99.90;;;;;;4956479;29;20245;-88
2022/03/05 10:38:50;;;;;;;8.30;4.93;;;4.90;99.90;;;;;;4956436;28;20268;-86
2022/03/05 10:41:22;;;;;;;6.83;4.80;;;4.80;99.90;;;;;;4939093;29;20516;-87
2022/03/05 10:44:05;;;;;;;8.27;4.50;;;4.90;99.90;;;;;;4939898;29;20560;-89
2022/03/05 10:46:42;;;;;;;7.60;4.60;;;5.00;99.90;;;;;;4942682;29;20715;-89
2022/03/05 10:49:09;;;;;;;6.40;4.73;;;5.30;99.90;;;;;;4942463;29;20193;-89
2022/03/05 10:51:37;;;;;;;7.43;5.10;;;5.50;99.90;;;;;;4959435;29;20205;-87
2022/03/05 10:54:03;;;;;;;5.97;4.47;;;5.70;99.90;;;;;;4942402;29;20277;-87
2022/03/05 10:56:31;;;;;;;7.07;4.20;;;5.80;99.90;;;;;;4941928;29;20196;-87
2022/03/05 10:59:11;;;;;;;8.23;4.50;;;6.00;99.90;;;;;;4942226;29;20205;-88
2022/03/05 11:01:39;;;;;;;7.00;4.70;;;6.10;99.90;;;;;;4942213;29;20173;-87
2022/03/05 11:04:06;;;;;;;6.77;4.30;;;6.10;99.90;;;;;;4959372;29;20183;-87
2022/03/05 11:06:37;;;;;;;5.77;3.80;;;6.00;99.90;;;;;;4959328;29;20181;-88
2022/03/05 11:09:04;;;;;;;6.03;4.33;;;5.90;99.90;;;;;;4959479;29;20161;-88
2022/03/05 11:11:31;;;;;;;7.80;4.67;;;5.70;99.90;;;;;;4941944;29;20293;-86
2022/03/05 11:13:58;;;;;;;5.27;4.30;;;5.70;99.90;;;;;;4942388;29;20532;-89
2022/03/05 11:16:26;;;;;;;4.73;4.00;;;5.80;99.90;;;;;;4959205;28;20651;-87
2022/03/05 11:18:53;;;;;;;6.37;4.80;;;6.10;99.90;;;;;;4941927;29;20212;-88
2022/03/05 11:21:18;;;;;;;5.53;4.00;;;6.50;99.90;;;;;;4942058;29;20583;-88
2022/03/05 11:23:45;;;;;;;6.17;3.73;;;6.60;99.90;;;;;;4942204;29;20219;-88
2022/03/05 11:26:13;;;;;;;4.33;3.60;;;6.50;99.90;;;;;;4958746;28;20173;-87
2022/03/05 11:28:45;;;;;;;5.60;3.80;;;6.30;99.90;;;;;;4941794;29;20188;-88
2022/03/05 11:31:30;;;;;;;4.80;3.27;;;6.30;99.90;;;;;;4941742;29;20255;-87
2022/03/05 11:34:09;;;;;;;5.87;3.27;;;6.40;98.40;;;;;;4941973;29;20173;-88
2022/03/05 11:36:36;;;;;;;4.37;3.60;;;6.50;96.80;;;;;;4958932;29;20153;-87
2022/03/05 11:39:09;;;;;;;5.37;3.87;;;6.60;97.30;;;;;;4958719;28;20224;-87
2022/03/05 11:41:52;;;;;;;7.53;3.90;;;6.70;98.70;;;;;;4958405;29;20166;-87
2022/03/05 11:44:20;;;;;;;5.07;3.73;;;7.00;97.80;;;;;;4941452;29;20180;-86
2022/03/05 11:46:46;;;;;;;4.47;3.90;;;7.10;97.30;;;;;;4958696;28;20177;-87
2022/03/05 11:49:14;;;;;;;6.60;3.63;;;6.90;95.80;;;;;;4941368;29;20181;-88
2022/03/05 11:51:58;;;;;;;5.57;4.17;;;6.50;96.30;;;;;;4958612;29;20205;-87
2022/03/05 11:54:25;;;;;;;5.03;3.70;;;6.40;95.90;;;;;;4941074;28;20696;-87
2022/03/05 11:57:13;;;;;;;4.53;3.70;;;6.70;96.90;;;;;;4957863;29;20166;-86
2022/03/05 12:00:03;;;;;;;4.00;3.53;;;6.70;96.90;;;;;;4958369;28;20181;-88
2022/03/05 12:02:43;;;;;;;6.97;4.20;;;6.60;96.30;;;;;;4958195;29;20212;-87
2022/03/05 12:05:09;;;;;;;4.83;3.70;;;6.40;97.80;;;;;;4958381;29;20165;-87
2022/03/05 12:07:41;;;;;;;5.13;4.17;;;6.50;98.70;;;;;;4958160;28;20214;-87
2022/03/05 12:10:13;;;;;;;5.70;4.13;;;6.60;99.90;;;;;;4940825;29;20181;-88
2022/03/05 12:12:51;;;;;;;6.10;4.40;;;6.70;98.90;;;;;;4940966;29;20596;-88
2022/03/05 12:15:17;;;;;;;5.30;3.93;;;6.90;98.80;;;;;;4958157;28;20173;-86
2022/03/05 12:17:48;;;;;;;6.00;4.10;;;7.00;99.00;;;;;;4940890;29;20244;-86
2022/03/05 12:20:18;;;;;;;4.40;3.77;;;6.90;98.90;;;;;;4940968;29;20272;-87
2022/03/05 12:22:50;;;;;;;5.67;4.13;;;6.60;96.50;;;;;;4958294;29;20169;-87
2022/03/05 12:25:17;;;;;;;4.60;4.13;;;6.40;96.90;;;;;;4940405;29;20323;-86
2022/03/05 12:27:50;;;;;;;5.13;3.70;;;6.40;98.50;;;;;;4957674;28;20267;-88
2022/03/05 12:30:20;;;;;;;5.60;4.27;;;6.30;98.50;;;;;;4940659;29;20201;-87
2022/03/05 12:32:47;;;;;;;5.33;3.87;;;6.20;97.80;;;;;;4939995;29;20221;-88
2022/03/05 12:35:16;;;;;;;5.63;3.93;;;6.30;97.10;;;;;;4940584;29;20512;-87
2022/03/05 12:37:43;;;;;;;5.07;3.90;;;6.60;97.70;;;;;;4940312;29;20213;-88
2022/03/05 12:40:10;;;;;;;4.20;3.80;;;6.60;96.40;;;;;;4957371;28;20176;-86
2022/03/05 12:42:45;;;;;;;4.80;3.77;;;6.50;96.60;;;;;;4940758;29;20177;-88
2022/03/05 12:45:33;;;;;;;6.17;4.00;;;6.30;97.30;;;;;;4957765;29;20161;-87
2022/03/05 12:48:07;;;;;;;5.67;4.10;;;6.10;97.80;;;;;;4957446;29;20176;-87
2022/03/05 12:50:37;;;;;;;7.27;4.37;;;6.00;98.70;;;;;;4940381;29;20178;-87
2022/03/05 12:53:10;;;;;;;5.87;4.40;;;5.90;99.90;;;;;;4940126;29;20341;-87
2022/03/05 12:55:44;;;;;;;5.03;4.10;;;5.90;99.40;;;;;;4957109;29;20185;-87
2022/03/05 12:58:19;;;;;;;5.57;4.40;;;6.00;99.30;;;;;;4957212;28;20263;-86
2022/03/05 13:00:48;;;;;;;12.73;4.70;;;6.10;99.90;;;;;;4940350;29;20699;-87
2022/03/05 13:03:15;;;;;;;6.67;4.67;;;6.10;98.90;;;;;;4940025;29;20197;-87